sensor_id;sensor_type;location;lat;lon;timestamp;pressure;altitude;pressure_sealevel;temperature;humidity
82266;BME280;71866;53.340;-6.308;2023-11-21T00:01:26;102181.19;;;8.51;75.79
82266;BME280;71866;53.340;-6.308;2023-11-21T00:03:56;102178.97;;;8.43;75.68
82266;BME280;71866;53.340;-6.308;2023-11-21T00:06:23;102179.84;;;8.44;75.68
82266;BME280;71866;53.340;-6.308;2023-11-21T00:08:51;102187.00;;;8.43;76.42
82266;BME280;71866;53.340;-6.308;2023-11-21T00:11:19;102177.34;;;8.41;76.24
82266;BME280;71866;53.340;-6.308;2023-11-21T00:13:49;102152.97;;;8.31;76.05
82266;BME280;71866;53.340;-6.308;2023-11-21T00:16:16;102179.56;;;8.33;76.31
82266;BME280;71866;53.340;-6.308;2023-11-21T00:18:44;102185.09;;;8.30;76.59
82266;BME280;71866;53.340;-6.308;2023-11-21T00:21:11;102184.41;;;8.26;76.97
82266;BME280;71866;53.340;-6.308;2023-11-21T00:23:39;102178.56;;;8.20;77.74
82266;BME280;71866;53.340;-6.308;2023-11-21T00:26:05;102170.09;;;8.11;77.55
82266;BME280;71866;53.340;-6.308;2023-11-21T00:28:32;102178.47;;;8.05;77.80
82266;BME280;71866;53.340;-6.308;2023-11-21T00:30:59;102168.81;;;8.03;77.93
82266;BME280;71866;53.340;-6.308;2023-11-21T00:33:26;102159.88;;;7.88;78.26
82266;BME280;71866;53.340;-6.308;2023-11-21T00:35:54;102176.41;;;7.95;78.17
82266;BME280;71866;53.340;-6.308;2023-11-21T00:38:20;102168.66;;;7.90;78.20
82266;BME280;71866;53.340;-6.308;2023-11-21T00:40:49;102183.81;;;7.90;78.43
82266;BME280;71866;53.340;-6.308;2023-11-21T00:43:17;102181.13;;;7.90;78.21
82266;BME280;71866;53.340;-6.308;2023-11-21T00:45:43;102181.22;;;7.88;78.09
82266;BME280;71866;53.340;-6.308;2023-11-21T00:48:11;102195.59;;;7.86;78.03
82266;BME280;71866;53.340;-6.308;2023-11-21T00:50:38;102200.13;;;7.83;78.28
82266;BME280;71866;53.340;-6.308;2023-11-21T00:53:06;102210.56;;;7.88;78.04
82266;BME280;71866;53.340;-6.308;2023-11-21T00:55:33;102215.78;;;7.90;78.43
82266;BME280;71866;53.340;-6.308;2023-11-21T00:58:01;102214.00;;;7.90;79.42
82266;BME280;71866;53.340;-6.308;2023-11-21T01:00:27;102226.28;;;7.93;79.22
82266;BME280;71866;53.340;-6.308;2023-11-21T01:02:54;102225.44;;;7.92;78.67
82266;BME280;71866;53.340;-6.308;2023-11-21T01:05:22;102225.44;;;7.92;77.87
82266;BME280;71866;53.340;-6.308;2023-11-21T01:07:48;102236.97;;;7.93;79.16
82266;BME280;71866;53.340;-6.308;2023-11-21T01:10:16;102232.41;;;7.95;79.64
82266;BME280;71866;53.340;-6.308;2023-11-21T01:12:44;102236.97;;;7.93;79.17
82266;BME280;71866;53.340;-6.308;2023-11-21T01:15:11;102235.59;;;7.86;80.49
82266;BME280;71866;53.340;-6.308;2023-11-21T01:17:39;102234.88;;;7.82;79.33
82266;BME280;71866;53.340;-6.308;2023-11-21T01:20:07;102258.28;;;7.93;78.86
82266;BME280;71866;53.340;-6.308;2023-11-21T01:22:34;102260.09;;;7.92;78.16
82266;BME280;71866;53.340;-6.308;2023-11-21T01:25:02;102273.53;;;7.91;78.26
82266;BME280;71866;53.340;-6.308;2023-11-21T01:27:30;102277.22;;;7.88;78.85
82266;BME280;71866;53.340;-6.308;2023-11-21T01:29:56;102291.66;;;7.84;77.94
82266;BME280;71866;53.340;-6.308;2023-11-21T01:32:23;102290.63;;;7.87;79.06
82266;BME280;71866;53.340;-6.308;2023-11-21T01:34:51;102285.00;;;7.75;78.46
82266;BME280;71866;53.340;-6.308;2023-11-21T01:37:18;102299.00;;;7.79;78.29
82266;BME280;71866;53.340;-6.308;2023-11-21T01:39:45;102304.34;;;7.79;78.32
82266;BME280;71866;53.340;-6.308;2023-11-21T01:42:13;102305.38;;;7.76;78.04
82266;BME280;71866;53.340;-6.308;2023-11-21T01:44:39;102298.66;;;7.69;78.00
82266;BME280;71866;53.340;-6.308;2023-11-21T01:47:08;102284.63;;;7.66;78.41
82266;BME280;71866;53.340;-6.308;2023-11-21T01:49:36;102299.66;;;7.67;78.24
82266;BME280;71866;53.340;-6.308;2023-11-21T01:52:05;102285.19;;;7.55;78.34
82266;BME280;71866;53.340;-6.308;2023-11-21T01:54:34;102306.09;;;7.63;78.69
82266;BME280;71866;53.340;-6.308;2023-11-21T01:57:01;102289.66;;;7.55;78.77
82266;BME280;71866;53.340;-6.308;2023-11-21T01:59:34;102298.53;;;7.55;79.16
82266;BME280;71866;53.340;-6.308;2023-11-21T02:02:01;102297.81;;;7.51;78.92
82266;BME280;71866;53.340;-6.308;2023-11-21T02:04:28;102298.91;;;7.47;79.46
82266;BME280;71866;53.340;-6.308;2023-11-21T02:06:58;102297.19;;;7.46;79.22
82266;BME280;71866;53.340;-6.308;2023-11-21T02:09:28;102307.19;;;7.41;79.51
82266;BME280;71866;53.340;-6.308;2023-11-21T02:11:56;102313.72;;;7.36;79.48
82266;BME280;71866;53.340;-6.308;2023-11-21T02:14:27;102323.19;;;7.41;79.58
82266;BME280;71866;53.340;-6.308;2023-11-21T02:16:55;102315.44;;;7.37;79.70
82266;BME280;71866;53.340;-6.308;2023-11-21T02:19:22;102321.53;;;7.39;79.71
82266;BME280;71866;53.340;-6.308;2023-11-21T02:21:49;102315.34;;;7.38;79.98
82266;BME280;71866;53.340;-6.308;2023-11-21T02:24:21;102313.63;;;7.37;79.71
82266;BME280;71866;53.340;-6.308;2023-11-21T02:26:49;102317.25;;;7.36;79.49
82266;BME280;71866;53.340;-6.308;2023-11-21T02:29:18;102303.28;;;7.31;80.73
82266;BME280;71866;53.340;-6.308;2023-11-21T02:31:45;102318.19;;;7.35;80.75
82266;BME280;71866;53.340;-6.308;2023-11-21T02:34:17;102336.91;;;7.34;80.15
82266;BME280;71866;53.340;-6.308;2023-11-21T02:36:44;102336.06;;;7.33;81.10
82266;BME280;71866;53.340;-6.308;2023-11-21T02:39:11;102335.88;;;7.36;83.09
82266;BME280;71866;53.340;-6.308;2023-11-21T02:41:39;102366.50;;;7.46;83.17
82266;BME280;71866;53.340;-6.308;2023-11-21T02:44:06;102371.56;;;7.51;82.36
82266;BME280;71866;53.340;-6.308;2023-11-21T02:46:34;102365.53;;;7.47;81.84
82266;BME280;71866;53.340;-6.308;2023-11-21T02:49:02;102385.84;;;7.50;81.21
82266;BME280;71866;53.340;-6.308;2023-11-21T02:51:30;102378.41;;;7.57;84.10
82266;BME280;71866;53.340;-6.308;2023-11-21T02:53:56;102378.78;;;7.49;81.07
82266;BME280;71866;53.340;-6.308;2023-11-21T02:56:25;102381.53;;;7.47;80.90
82266;BME280;71866;53.340;-6.308;2023-11-21T02:58:56;102383.53;;;7.42;81.16
82266;BME280;71866;53.340;-6.308;2023-11-21T03:01:23;102397.00;;;7.39;79.99
82266;BME280;71866;53.340;-6.308;2023-11-21T03:03:51;102405.72;;;7.43;80.51
82266;BME280;71866;53.340;-6.308;2023-11-21T03:06:19;102412.06;;;7.40;79.63
82266;BME280;71866;53.340;-6.308;2023-11-21T03:08:47;102411.28;;;7.38;79.70
82266;BME280;71866;53.340;-6.308;2023-11-21T03:11:14;102398.13;;;7.35;80.81
82266;BME280;71866;53.340;-6.308;2023-11-21T03:13:41;102397.31;;;7.33;79.33
82266;BME280;71866;53.340;-6.308;2023-11-21T03:16:09;102393.16;;;7.28;80.15
82266;BME280;71866;53.340;-6.308;2023-11-21T03:18:37;102403.81;;;7.28;79.45
82266;BME280;71866;53.340;-6.308;2023-11-21T03:21:05;102418.94;;;7.27;79.92
82266;BME280;71866;53.340;-6.308;2023-11-21T03:23:32;102420.03;;;7.23;80.30
82266;BME280;71866;53.340;-6.308;2023-11-21T03:26:00;102418.25;;;7.24;80.27
82266;BME280;71866;53.340;-6.308;2023-11-21T03:28:26;102418.47;;;7.19;81.26
82266;BME280;71866;53.340;-6.308;2023-11-21T03:30:54;102423.50;;;7.25;82.05
82266;BME280;71866;53.340;-6.308;2023-11-21T03:33:21;102443.78;;;7.28;82.67
82266;BME280;71866;53.340;-6.308;2023-11-21T03:35:48;102428.81;;;7.25;83.82
82266;BME280;71866;53.340;-6.308;2023-11-21T03:38:15;102442.69;;;7.32;81.06
82266;BME280;71866;53.340;-6.308;2023-11-21T03:40:42;102449.91;;;7.30;80.35
82266;BME280;71866;53.340;-6.308;2023-11-21T03:43:10;102437.03;;;7.20;80.23
82266;BME280;71866;53.340;-6.308;2023-11-21T03:45:37;102424.25;;;7.10;80.04
82266;BME280;71866;53.340;-6.308;2023-11-21T03:48:04;102436.56;;;7.12;80.25
82266;BME280;71866;53.340;-6.308;2023-11-21T03:50:32;102422.63;;;7.06;80.34
82266;BME280;71866;53.340;-6.308;2023-11-21T03:53:00;102411.56;;;6.96;80.38
82266;BME280;71866;53.340;-6.308;2023-11-21T03:55:26;102403.00;;;6.89;80.82
82266;BME280;71866;53.340;-6.308;2023-11-21T03:57:54;102419.78;;;6.92;81.36
82266;BME280;71866;53.340;-6.308;2023-11-21T04:00:21;102427.63;;;6.95;83.35
82266;BME280;71866;53.340;-6.308;2023-11-21T04:02:48;102435.47;;;6.98;81.81
82266;BME280;71866;53.340;-6.308;2023-11-21T04:05:15;102446.91;;;7.00;82.84
82266;BME280;71866;53.340;-6.308;2023-11-21T04:07:44;102452.94;;;7.03;84.82
82266;BME280;71866;53.340;-6.308;2023-11-21T04:10:11;102453.47;;;7.11;85.59
82266;BME280;71866;53.340;-6.308;2023-11-21T04:12:37;102457.78;;;7.14;82.90
82266;BME280;71866;53.340;-6.308;2023-11-21T04:15:05;102457.72;;;7.15;83.34
82266;BME280;71866;53.340;-6.308;2023-11-21T04:17:32;102463.44;;;7.25;86.44
82266;BME280;71866;53.340;-6.308;2023-11-21T04:20:00;102457.19;;;7.26;86.65
82266;BME280;71866;53.340;-6.308;2023-11-21T04:22:26;102462.59;;;7.25;84.46
82266;BME280;71866;53.340;-6.308;2023-11-21T04:24:53;102467.53;;;7.32;85.06
82266;BME280;71866;53.340;-6.308;2023-11-21T04:27:20;102465.66;;;7.34;85.99
82266;BME280;71866;53.340;-6.308;2023-11-21T04:29:48;102455.44;;;7.44;86.69
82266;BME280;71866;53.340;-6.308;2023-11-21T04:32:15;102460.53;;;7.48;84.53
82266;BME280;71866;53.340;-6.308;2023-11-21T04:34:42;102455.13;;;7.50;87.12
82266;BME280;71866;53.340;-6.308;2023-11-21T04:37:09;102468.22;;;7.55;84.46
82266;BME280;71866;53.340;-6.308;2023-11-21T04:39:36;102469.72;;;7.60;86.94
82266;BME280;71866;53.340;-6.308;2023-11-21T04:42:04;102474.69;;;7.68;89.19
82266;BME280;71866;53.340;-6.308;2023-11-21T04:44:30;102474.13;;;7.61;86.17
82266;BME280;71866;53.340;-6.308;2023-11-21T04:46:57;102490.91;;;7.63;85.86
82266;BME280;71866;53.340;-6.308;2023-11-21T04:49:25;102496.16;;;7.65;87.41
82266;BME280;71866;53.340;-6.308;2023-11-21T04:51:51;102497.72;;;7.69;86.59
82266;BME280;71866;53.340;-6.308;2023-11-21T04:54:18;102509.03;;;7.74;85.88
82266;BME280;71866;53.340;-6.308;2023-11-21T04:56:46;102504.47;;;7.76;86.95
82266;BME280;71866;53.340;-6.308;2023-11-21T04:59:12;102500.31;;;7.70;85.14
82266;BME280;71866;53.340;-6.308;2023-11-21T05:01:40;102515.81;;;7.81;86.17
82266;BME280;71866;53.340;-6.308;2023-11-21T05:04:07;102499.69;;;7.65;83.08
82266;BME280;71866;53.340;-6.308;2023-11-21T05:06:35;102521.56;;;7.72;83.25
82266;BME280;71866;53.340;-6.308;2023-11-21T05:09:03;102515.00;;;7.79;84.61
82266;BME280;71866;53.340;-6.308;2023-11-21T05:11:31;102515.38;;;7.71;82.77
82266;BME280;71866;53.340;-6.308;2023-11-21T05:13:57;102522.88;;;7.63;79.12
82266;BME280;71866;53.340;-6.308;2023-11-21T05:16:26;102518.25;;;7.49;79.87
82266;BME280;71866;53.340;-6.308;2023-11-21T05:18:53;102522.25;;;7.39;79.27
82266;BME280;71866;53.340;-6.308;2023-11-21T05:21:21;102527.81;;;7.35;79.09
82266;BME280;71866;53.340;-6.308;2023-11-21T05:23:49;102528.03;;;7.30;81.37
82266;BME280;71866;53.340;-6.308;2023-11-21T05:26:15;102539.97;;;7.40;85.52
82266;BME280;71866;53.340;-6.308;2023-11-21T05:28:43;102541.22;;;7.52;84.93
82266;BME280;71866;53.340;-6.308;2023-11-21T05:31:09;102544.66;;;7.54;84.08
82266;BME280;71866;53.340;-6.308;2023-11-21T05:33:42;102545.44;;;7.37;80.68
82266;BME280;71866;53.340;-6.308;2023-11-21T05:36:10;102549.06;;;7.36;80.80
82266;BME280;71866;53.340;-6.308;2023-11-21T05:38:36;102549.50;;;7.27;79.82
82266;BME280;71866;53.340;-6.308;2023-11-21T05:41:04;102553.47;;;7.18;80.64
82266;BME280;71866;53.340;-6.308;2023-11-21T05:43:31;102551.72;;;7.17;81.77
82266;BME280;71866;53.340;-6.308;2023-11-21T05:45:58;102558.78;;;7.18;84.84
82266;BME280;71866;53.340;-6.308;2023-11-21T05:48:25;102570.94;;;7.24;83.39
82266;BME280;71866;53.340;-6.308;2023-11-21T05:50:52;102576.13;;;7.27;82.61
82266;BME280;71866;53.340;-6.308;2023-11-21T05:53:20;102584.63;;;7.35;84.76
82266;BME280;71866;53.340;-6.308;2023-11-21T05:55:46;102577.44;;;7.37;85.23
82266;BME280;71866;53.340;-6.308;2023-11-21T05:58:14;102580.63;;;7.45;84.79
82266;BME280;71866;53.340;-6.308;2023-11-21T06:00:41;102572.47;;;7.48;84.94
82266;BME280;71866;53.340;-6.308;2023-11-21T06:03:07;102584.06;;;7.47;83.21
82266;BME280;71866;53.340;-6.308;2023-11-21T06:05:35;102590.34;;;7.46;82.46
82266;BME280;71866;53.340;-6.308;2023-11-21T06:08:03;102591.47;;;7.41;82.82
82266;BME280;71866;53.340;-6.308;2023-11-21T06:10:31;102595.81;;;7.43;82.76
82266;BME280;71866;53.340;-6.308;2023-11-21T06:12:57;102587.00;;;7.41;82.95
82266;BME280;71866;53.340;-6.308;2023-11-21T06:15:29;102594.94;;;7.43;84.38
82266;BME280;71866;53.340;-6.308;2023-11-21T06:17:56;102586.75;;;7.47;86.37
82266;BME280;71866;53.340;-6.308;2023-11-21T06:20:23;102584.47;;;7.38;81.87
82266;BME280;71866;53.340;-6.308;2023-11-21T06:22:51;102594.22;;;7.39;82.75
82266;BME280;71866;53.340;-6.308;2023-11-21T06:25:18;102587.72;;;7.26;81.00
82266;BME280;71866;53.340;-6.308;2023-11-21T06:27:46;102589.09;;;7.16;80.81
82266;BME280;71866;53.340;-6.308;2023-11-21T06:30:14;102598.88;;;7.15;82.31
82266;BME280;71866;53.340;-6.308;2023-11-21T06:32:42;102610.19;;;7.20;83.46
82266;BME280;71866;53.340;-6.308;2023-11-21T06:35:09;102605.81;;;7.19;83.79
82266;BME280;71866;53.340;-6.308;2023-11-21T06:37:36;102605.50;;;7.26;85.25
82266;BME280;71866;53.340;-6.308;2023-11-21T06:40:03;102605.31;;;7.30;85.36
82266;BME280;71866;53.340;-6.308;2023-11-21T06:42:31;102612.72;;;7.42;87.39
82266;BME280;71866;53.340;-6.308;2023-11-21T06:44:58;102595.44;;;7.32;85.25
82266;BME280;71866;53.340;-6.308;2023-11-21T06:47:25;102600.03;;;7.29;84.82
82266;BME280;71866;53.340;-6.308;2023-11-21T06:49:53;102608.53;;;7.37;83.12
82266;BME280;71866;53.340;-6.308;2023-11-21T06:52:21;102608.63;;;7.35;83.40
82266;BME280;71866;53.340;-6.308;2023-11-21T06:54:48;102613.94;;;7.35;85.03
82266;BME280;71866;53.340;-6.308;2023-11-21T06:57:15;102610.69;;;7.29;82.51
82266;BME280;71866;53.340;-6.308;2023-11-21T06:59:42;102622.16;;;7.31;84.19
82266;BME280;71866;53.340;-6.308;2023-11-21T07:02:09;102633.03;;;7.26;82.32
82266;BME280;71866;53.340;-6.308;2023-11-21T07:04:36;102645.53;;;7.24;81.49
82266;BME280;71866;53.340;-6.308;2023-11-21T07:07:04;102646.63;;;7.20;82.87
82266;BME280;71866;53.340;-6.308;2023-11-21T07:09:30;102655.28;;;7.25;83.28
82266;BME280;71866;53.340;-6.308;2023-11-21T07:11:59;102660.72;;;7.22;83.58
82266;BME280;71866;53.340;-6.308;2023-11-21T07:14:25;102652.59;;;7.25;85.11
82266;BME280;71866;53.340;-6.308;2023-11-21T07:16:54;102649.56;;;7.14;81.84
82266;BME280;71866;53.340;-6.308;2023-11-21T07:19:21;102660.88;;;7.19;81.94
82266;BME280;71866;53.340;-6.308;2023-11-21T07:21:47;102666.63;;;7.10;81.61
82266;BME280;71866;53.340;-6.308;2023-11-21T07:24:15;102666.34;;;6.96;80.47
82266;BME280;71866;53.340;-6.308;2023-11-21T07:26:42;102659.69;;;6.85;81.12
82266;BME280;71866;53.340;-6.308;2023-11-21T07:29:09;102654.84;;;6.75;81.67
82266;BME280;71866;53.340;-6.308;2023-11-21T07:31:36;102668.09;;;6.76;84.09
82266;BME280;71866;53.340;-6.308;2023-11-21T07:34:03;102678.72;;;6.76;84.26
82266;BME280;71866;53.340;-6.308;2023-11-21T07:36:30;102673.41;;;6.76;83.91
82266;BME280;71866;53.340;-6.308;2023-11-21T07:38:57;102689.84;;;6.86;85.44
82266;BME280;71866;53.340;-6.308;2023-11-21T07:41:23;102693.25;;;6.89;85.60
82266;BME280;71866;53.340;-6.308;2023-11-21T07:43:57;102682.53;;;6.91;88.50
82266;BME280;71866;53.340;-6.308;2023-11-21T07:46:25;102692.16;;;6.94;85.93
82266;BME280;71866;53.340;-6.308;2023-11-21T07:48:53;102697.44;;;6.95;85.72
82266;BME280;71866;53.340;-6.308;2023-11-21T07:51:20;102708.34;;;6.89;83.40
82266;BME280;71866;53.340;-6.308;2023-11-21T07:53:47;102689.50;;;6.73;82.42
82266;BME280;71866;53.340;-6.308;2023-11-21T07:56:15;102709.63;;;6.80;83.07
82266;BME280;71866;53.340;-6.308;2023-11-21T07:58:41;102711.94;;;6.88;86.11
82266;BME280;71866;53.340;-6.308;2023-11-21T08:01:08;102708.41;;;6.87;84.81
82266;BME280;71866;53.340;-6.308;2023-11-21T08:03:36;102713.47;;;6.94;87.97
82266;BME280;71866;53.340;-6.308;2023-11-21T08:06:03;102720.78;;;6.88;85.41
82266;BME280;71866;53.340;-6.308;2023-11-21T08:08:29;102731.38;;;6.90;84.64
82266;BME280;71866;53.340;-6.308;2023-11-21T08:10:57;102731.03;;;6.77;83.35
82266;BME280;71866;53.340;-6.308;2023-11-21T08:13:26;102723.31;;;6.71;82.38
82266;BME280;71866;53.340;-6.308;2023-11-21T08:15:54;102729.56;;;6.70;83.24
82266;BME280;71866;53.340;-6.308;2023-11-21T08:18:22;102735.13;;;6.64;83.96
82266;BME280;71866;53.340;-6.308;2023-11-21T08:20:50;102731.31;;;6.49;83.25
82266;BME280;71866;53.340;-6.308;2023-11-21T08:23:17;102730.44;;;6.49;83.17
82266;BME280;71866;53.340;-6.308;2023-11-21T08:25:44;102739.41;;;6.46;83.26
82266;BME280;71866;53.340;-6.308;2023-11-21T08:28:12;102745.03;;;6.39;83.77
82266;BME280;71866;53.340;-6.308;2023-11-21T08:30:40;102735.66;;;6.28;84.29
82266;BME280;71866;53.340;-6.308;2023-11-21T08:33:08;102741.91;;;6.27;84.40
82266;BME280;71866;53.340;-6.308;2023-11-21T08:35:36;102737.72;;;6.22;84.79
82266;BME280;71866;53.340;-6.308;2023-11-21T08:38:03;102757.81;;;6.29;85.71
82266;BME280;71866;53.340;-6.308;2023-11-21T08:40:30;102764.94;;;6.28;84.96
82266;BME280;71866;53.340;-6.308;2023-11-21T08:42:58;102754.41;;;6.25;85.28
82266;BME280;71866;53.340;-6.308;2023-11-21T08:45:25;102761.28;;;6.31;86.44
82266;BME280;71866;53.340;-6.308;2023-11-21T08:47:54;102763.78;;;6.36;86.89
82266;BME280;71866;53.340;-6.308;2023-11-21T08:50:20;102766.56;;;6.33;85.23
82266;BME280;71866;53.340;-6.308;2023-11-21T08:52:48;102785.88;;;6.38;85.32
82266;BME280;71866;53.340;-6.308;2023-11-21T08:55:14;102782.03;;;6.45;88.80
82266;BME280;71866;53.340;-6.308;2023-11-21T08:57:44;102784.59;;;6.48;88.29
82266;BME280;71866;53.340;-6.308;2023-11-21T09:00:12;102793.25;;;6.53;87.09
82266;BME280;71866;53.340;-6.308;2023-11-21T09:02:39;102808.22;;;6.55;85.11
82266;BME280;71866;53.340;-6.308;2023-11-21T09:05:06;102796.84;;;6.52;84.85
82266;BME280;71866;53.340;-6.308;2023-11-21T09:07:34;102794.00;;;6.56;84.75
82266;BME280;71866;53.340;-6.308;2023-11-21T09:10:05;102789.72;;;6.52;84.50
82266;BME280;71866;53.340;-6.308;2023-11-21T09:12:36;102796.84;;;6.52;84.33
82266;BME280;71866;53.340;-6.308;2023-11-21T09:15:07;102806.63;;;6.51;85.46
82266;BME280;71866;53.340;-6.308;2023-11-21T09:17:36;102808.09;;;6.58;86.63
82266;BME280;71866;53.340;-6.308;2023-11-21T09:20:04;102814.56;;;6.75;89.39
82266;BME280;71866;53.340;-6.308;2023-11-21T09:22:32;102810.53;;;6.86;87.22
82266;BME280;71866;53.340;-6.308;2023-11-21T09:24:59;102790.97;;;6.87;85.68
82266;BME280;71866;53.340;-6.308;2023-11-21T09:27:26;102808.78;;;7.07;85.19
82266;BME280;71866;53.340;-6.308;2023-11-21T09:29:53;102805.72;;;7.16;84.95
82266;BME280;71866;53.340;-6.308;2023-11-21T09:32:21;102803.00;;;7.18;83.97
82266;BME280;71866;53.340;-6.308;2023-11-21T09:34:50;102795.13;;;7.15;83.13
82266;BME280;71866;53.340;-6.308;2023-11-21T09:37:18;102807.00;;;7.28;84.00
82266;BME280;71866;53.340;-6.308;2023-11-21T09:39:45;102800.94;;;7.25;82.78
82266;BME280;71866;53.340;-6.308;2023-11-21T09:42:23;102813.91;;;7.32;83.49
82266;BME280;71866;53.340;-6.308;2023-11-21T09:47:28;102816.88;;;7.46;82.85
82266;BME280;71866;53.340;-6.308;2023-11-21T09:49:56;102814.88;;;7.51;83.90
82266;BME280;71866;53.340;-6.308;2023-11-21T09:52:26;102813.94;;;7.52;82.59
82266;BME280;71866;53.340;-6.308;2023-11-21T09:54:55;102795.44;;;7.49;82.95
82266;BME280;71866;53.340;-6.308;2023-11-21T09:57:24;102800.03;;;7.46;82.31
82266;BME280;71866;53.340;-6.308;2023-11-21T09:59:52;102797.47;;;7.43;82.25
82266;BME280;71866;53.340;-6.308;2023-11-21T10:02:22;102795.56;;;7.46;83.11
82266;BME280;71866;53.340;-6.308;2023-11-21T10:04:51;102801.69;;;7.48;82.65
82266;BME280;71866;53.340;-6.308;2023-11-21T10:07:20;102804.16;;;7.53;82.14
82266;BME280;71866;53.340;-6.308;2023-11-21T10:09:48;102799.75;;;7.52;82.32
82266;BME280;71866;53.340;-6.308;2023-11-21T10:12:17;102804.81;;;7.58;82.70
82266;BME280;71866;53.340;-6.308;2023-11-21T10:14:46;102792.28;;;7.60;82.36
82266;BME280;71866;53.340;-6.308;2023-11-21T10:17:17;102792.06;;;7.65;82.68
82266;BME280;71866;53.340;-6.308;2023-11-21T10:19:46;102799.72;;;7.72;83.04
82266;BME280;71866;53.340;-6.308;2023-11-21T10:22:17;102801.38;;;7.75;82.77
82266;BME280;71866;53.340;-6.308;2023-11-21T10:24:44;102814.31;;;7.84;82.96
82266;BME280;71866;53.340;-6.308;2023-11-21T10:27:19;102819.38;;;7.90;82.24
82266;BME280;71866;53.340;-6.308;2023-11-21T10:29:47;102810.31;;;7.94;82.59
82266;BME280;71866;53.340;-6.308;2023-11-21T10:32:13;102811.69;;;8.03;82.68
82266;BME280;71866;53.340;-6.308;2023-11-21T10:34:40;102800.00;;;8.05;81.98
82266;BME280;71866;53.340;-6.308;2023-11-21T10:37:14;102787.59;;;8.04;81.52
82266;BME280;71866;53.340;-6.308;2023-11-21T10:39:40;102800.44;;;8.15;81.42
82266;BME280;71866;53.340;-6.308;2023-11-21T10:42:08;102805.69;;;8.16;81.09
82266;BME280;71866;53.340;-6.308;2023-11-21T10:44:35;102808.44;;;8.15;80.56
82266;BME280;71866;53.340;-6.308;2023-11-21T10:47:02;102800.50;;;8.13;81.08
82266;BME280;71866;53.340;-6.308;2023-11-21T10:49:30;102809.13;;;8.20;80.07
82266;BME280;71866;53.340;-6.308;2023-11-21T10:51:56;102812.75;;;8.18;79.85
82266;BME280;71866;53.340;-6.308;2023-11-21T10:54:24;102822.38;;;8.22;80.11
82266;BME280;71866;53.340;-6.308;2023-11-21T10:57:00;102814.31;;;8.23;80.57
82266;BME280;71866;53.340;-6.308;2023-11-21T10:59:30;102830.91;;;8.30;80.27
82266;BME280;71866;53.340;-6.308;2023-11-21T11:02:09;102823.81;;;8.29;79.68
82266;BME280;71866;53.340;-6.308;2023-11-21T11:04:43;102820.03;;;8.34;80.07
82266;BME280;71866;53.340;-6.308;2023-11-21T11:07:13;102833.09;;;8.40;80.36
82266;BME280;71866;53.340;-6.308;2023-11-21T11:09:41;102831.22;;;8.42;80.32
82266;BME280;71866;53.340;-6.308;2023-11-21T11:12:08;102816.84;;;8.45;80.03
82266;BME280;71866;53.340;-6.308;2023-11-21T11:14:36;102834.22;;;8.54;79.62
82266;BME280;71866;53.340;-6.308;2023-11-21T11:17:03;102830.75;;;8.52;79.40
82266;BME280;71866;53.340;-6.308;2023-11-21T11:19:31;102843.41;;;8.67;80.65
82266;BME280;71866;53.340;-6.308;2023-11-21T11:28:07;102837.94;;;8.87;79.80
82266;BME280;71866;53.340;-6.308;2023-11-21T11:33:34;102827.00;;;8.93;78.54
82266;BME280;71866;53.340;-6.308;2023-11-21T11:36:07;102821.03;;;9.05;78.66
82266;BME280;71866;53.340;-6.308;2023-11-21T11:38:38;102805.84;;;9.06;78.29
82266;BME280;71866;53.340;-6.308;2023-11-21T11:41:06;102807.03;;;9.18;78.28
82266;BME280;71866;53.340;-6.308;2023-11-21T11:43:33;102798.25;;;9.16;77.88
82266;BME280;71866;53.340;-6.308;2023-11-21T11:46:03;102789.13;;;9.20;77.51
82266;BME280;71866;53.340;-6.308;2023-11-21T11:48:29;102802.91;;;9.29;77.71
82266;BME280;71866;53.340;-6.308;2023-11-21T11:51:13;102805.97;;;9.39;77.61
82266;BME280;71866;53.340;-6.308;2023-11-21T11:53:41;102791.88;;;9.35;76.49
82266;BME280;71866;53.340;-6.308;2023-11-21T11:58:56;102791.72;;;9.38;77.35
82266;BME280;71866;53.340;-6.308;2023-11-21T12:01:26;102791.47;;;9.43;77.43
82266;BME280;71866;53.340;-6.308;2023-11-21T12:06:39;102797.38;;;9.50;77.73
82266;BME280;71866;53.340;-6.308;2023-11-21T12:09:20;102807.59;;;9.59;77.33
82266;BME280;71866;53.340;-6.308;2023-11-21T12:11:49;102810.34;;;9.57;76.45
82266;BME280;71866;53.340;-6.308;2023-11-21T12:14:16;102804.44;;;9.51;76.05
82266;BME280;71866;53.340;-6.308;2023-11-21T12:16:44;102807.75;;;9.56;76.66
82266;BME280;71866;53.340;-6.308;2023-11-21T12:19:12;102801.63;;;9.54;77.10
82266;BME280;71866;53.340;-6.308;2023-11-21T12:21:40;102806.88;;;9.55;76.06
82266;BME280;71866;53.340;-6.308;2023-11-21T12:24:07;102807.03;;;9.52;75.71
82266;BME280;71866;53.340;-6.308;2023-11-21T12:26:38;102816.00;;;9.51;75.90
82266;BME280;71866;53.340;-6.308;2023-11-21T12:29:05;102814.69;;;9.43;75.54
82266;BME280;71866;53.340;-6.308;2023-11-21T12:31:33;102813.75;;;9.44;76.22
82266;BME280;71866;53.340;-6.308;2023-11-21T12:34:01;102812.22;;;9.55;76.99
82266;BME280;71866;53.340;-6.308;2023-11-21T12:36:27;102795.00;;;9.61;76.75
82266;BME280;71866;53.340;-6.308;2023-11-21T12:38:55;102808.13;;;9.65;76.90
82266;BME280;71866;53.340;-6.308;2023-11-21T12:41:22;102809.63;;;9.71;75.79
82266;BME280;71866;53.340;-6.308;2023-11-21T12:43:49;102813.78;;;9.77;77.20
82266;BME280;71866;53.340;-6.308;2023-11-21T12:46:17;102812.94;;;9.76;75.49
82266;BME280;71866;53.340;-6.308;2023-11-21T12:48:45;102807.50;;;9.78;75.97
82266;BME280;71866;53.340;-6.308;2023-11-21T12:51:12;102820.44;;;9.85;75.53
82266;BME280;71866;53.340;-6.308;2023-11-21T12:53:40;102830.03;;;9.89;76.24
82266;BME280;71866;53.340;-6.308;2023-11-21T12:56:10;102825.63;;;9.88;76.06
82266;BME280;71866;53.340;-6.308;2023-11-21T12:58:38;102834.63;;;9.87;75.39
82266;BME280;71866;53.340;-6.308;2023-11-21T13:01:06;102833.66;;;9.88;75.84
82266;BME280;71866;53.340;-6.308;2023-11-21T13:03:34;102841.69;;;9.88;75.01
82266;BME280;71866;53.340;-6.308;2023-11-21T13:06:01;102846.63;;;9.96;75.72
82266;BME280;71866;53.340;-6.308;2023-11-21T13:08:28;102841.03;;;10.00;75.09
82266;BME280;71866;53.340;-6.308;2023-11-21T13:10:56;102832.06;;;10.01;75.81